createdAt,value
2018-05-13T00:00:18.057Z,13.30
2018-05-13T00:03:21.379Z,13.30
2018-05-13T00:06:25.460Z,13.30
2018-05-13T00:09:28.777Z,13.30
2018-05-13T00:12:32.089Z,13.30
2018-05-13T00:15:35.413Z,13.40
2018-05-13T00:18:38.720Z,13.50
2018-05-13T00:21:42.071Z,13.50
2018-05-13T00:24:46.188Z,13.60
2018-05-13T00:27:50.302Z,13.50
2018-05-13T00:30:54.394Z,13.50
2018-05-13T00:33:57.705Z,13.50
2018-05-13T00:37:01.024Z,13.40
2018-05-13T00:40:05.101Z,13.30
2018-05-13T00:43:08.428Z,13.30
2018-05-13T00:46:12.500Z,13.20
2018-05-13T00:49:15.826Z,13.20
2018-05-13T00:52:19.904Z,13.20
2018-05-13T00:55:23.225Z,13.30
2018-05-13T00:58:26.554Z,13.30
2018-05-13T01:01:29.875Z,13.20
2018-05-13T01:04:33.185Z,13.20
2018-05-13T01:07:36.509Z,13.10
2018-05-13T01:10:39.837Z,13.10
2018-05-13T01:13:43.938Z,13.00
2018-05-13T01:16:48.014Z,13.00
2018-05-13T01:19:51.345Z,13.00
2018-05-13T01:22:54.679Z,12.90
2018-05-13T01:25:57.988Z,12.90
2018-05-13T01:29:02.079Z,12.90
2018-05-13T01:32:05.410Z,12.90
2018-05-13T01:35:08.740Z,12.80
2018-05-13T01:38:12.044Z,12.80
2018-05-13T01:41:15.365Z,12.80
2018-05-13T01:44:18.669Z,12.70
2018-05-13T01:47:22.009Z,12.70
2018-05-13T01:50:25.324Z,12.70
2018-05-13T01:53:28.652Z,12.80
2018-05-13T01:56:31.966Z,12.70
2018-05-13T01:59:35.290Z,12.70
2018-05-13T02:02:38.605Z,12.80
2018-05-13T02:05:41.925Z,12.70
2018-05-13T02:08:46.003Z,12.60
2018-05-13T02:11:49.333Z,12.60
2018-05-13T02:14:53.410Z,12.60
2018-05-13T02:17:56.741Z,12.60
2018-05-13T02:21:00.818Z,12.60
2018-05-13T02:24:04.128Z,12.60
2018-05-13T02:27:07.449Z,12.60
2018-05-13T02:30:11.533Z,12.60
2018-05-13T02:33:14.862Z,12.50
2018-05-13T02:36:18.953Z,12.60
2018-05-13T02:39:22.293Z,12.50
2018-05-13T02:42:25.593Z,12.60
2018-05-13T02:45:28.925Z,12.60
2018-05-13T02:48:32.245Z,12.60
2018-05-13T02:51:35.575Z,12.70
2018-05-13T02:54:38.882Z,12.60
2018-05-13T02:57:42.208Z,12.60
2018-05-13T03:00:45.542Z,12.50
2018-05-13T03:03:49.638Z,12.60
2018-05-13T03:06:52.970Z,12.60
2018-05-13T03:09:56.289Z,12.60
2018-05-13T03:12:59.605Z,12.60
2018-05-13T03:16:02.930Z,12.70
2018-05-13T03:19:06.340Z,12.70
2018-05-13T03:22:09.581Z,12.60
2018-05-13T03:25:12.910Z,12.60
2018-05-13T03:28:16.238Z,12.60
2018-05-13T03:31:20.319Z,12.50
2018-05-13T03:34:23.646Z,12.50
2018-05-13T03:37:26.954Z,12.50
2018-05-13T03:40:31.049Z,12.50
2018-05-13T03:43:34.362Z,12.50
2018-05-13T03:46:38.449Z,12.50
2018-05-13T03:49:41.762Z,12.50
2018-05-13T03:52:45.089Z,12.50
2018-05-13T03:55:48.399Z,12.50
2018-05-13T03:58:51.745Z,12.50
2018-05-13T04:01:55.065Z,12.60
2018-05-13T04:04:59.151Z,12.60
2018-05-13T04:12:18.966Z,12.60
2018-05-13T04:15:25.892Z,12.60
2018-05-13T04:18:29.201Z,12.70
2018-05-13T04:21:32.525Z,12.70
2018-05-13T04:24:35.833Z,12.70
2018-05-13T04:27:39.164Z,12.60
2018-05-13T04:30:42.469Z,12.70
2018-05-13T04:33:45.785Z,12.70
2018-05-13T04:36:49.866Z,12.70
2018-05-13T04:39:53.220Z,12.70
2018-05-13T04:42:56.535Z,12.80
2018-05-13T04:45:59.857Z,12.90
2018-05-13T04:49:03.165Z,13.00
2018-05-13T04:52:06.496Z,13.00
2018-05-13T04:55:09.805Z,13.10
2018-05-13T04:58:13.149Z,13.20
2018-05-13T05:01:16.462Z,13.30
2018-05-13T05:04:19.795Z,13.40
2018-05-13T05:07:23.110Z,13.40
2018-05-13T05:10:26.448Z,13.50
2018-05-13T05:13:29.764Z,13.50
2018-05-13T05:16:33.091Z,13.50
2018-05-13T05:19:36.401Z,13.40
2018-05-13T05:22:40.501Z,13.40
2018-05-13T05:25:43.810Z,13.40
2018-05-13T05:28:47.128Z,13.40
2018-05-13T05:31:51.219Z,13.50
2018-05-13T05:34:54.557Z,13.50
2018-05-13T05:37:58.632Z,13.60
2018-05-13T05:41:01.961Z,13.60
2018-05-13T05:44:05.272Z,13.60
2018-05-13T05:47:08.590Z,13.60
2018-05-13T05:50:11.910Z,13.60
2018-05-13T05:53:15.229Z,13.70
2018-05-13T05:56:19.314Z,13.80
2018-05-13T05:59:22.630Z,13.80
2018-05-13T06:02:26.709Z,13.90
2018-05-13T06:05:30.033Z,13.90
2018-05-13T06:08:33.351Z,14.00
2018-05-13T06:11:37.442Z,14.20
2018-05-13T06:14:40.748Z,14.20
2018-05-13T06:17:44.069Z,14.30
2018-05-13T06:20:47.385Z,14.30
2018-05-13T06:23:50.708Z,14.50
2018-05-13T06:26:54.022Z,14.50
2018-05-13T06:29:57.397Z,14.60
2018-05-13T06:33:00.710Z,14.70
2018-05-13T06:36:04.029Z,14.80
2018-05-13T06:39:07.339Z,14.90
2018-05-13T06:42:11.437Z,15.10
2018-05-13T06:45:15.527Z,15.20
2018-05-13T06:48:18.862Z,15.20
2018-05-13T06:51:22.210Z,15.30
2018-05-13T06:54:25.557Z,15.50
2018-05-13T06:57:29.637Z,15.90
2018-05-13T07:00:32.976Z,15.90
2018-05-13T07:03:36.303Z,16.20
2018-05-13T07:06:40.427Z,16.60
2018-05-13T07:09:43.745Z,16.60
2018-05-13T07:12:47.116Z,16.70
2018-05-13T07:15:50.428Z,16.80
2018-05-13T07:18:53.765Z,16.90
2018-05-13T07:21:57.861Z,17.20
2018-05-13T07:25:01.182Z,17.10
2018-05-13T07:28:05.256Z,17.20
2018-05-13T07:31:08.589Z,17.20
2018-05-13T07:34:12.665Z,17.30
2018-05-13T07:37:15.982Z,17.30
2018-05-13T07:40:19.304Z,17.40
2018-05-13T07:43:23.458Z,17.50
2018-05-13T07:46:26.741Z,17.50
2018-05-13T07:49:30.084Z,17.60
2018-05-13T07:52:33.393Z,17.70
2018-05-13T07:55:37.486Z,17.80
2018-05-13T07:58:40.802Z,17.70
2018-05-13T08:01:44.893Z,17.90
2018-05-13T08:04:48.205Z,17.90
2018-05-13T08:07:51.528Z,18.00
2018-05-13T08:10:54.838Z,18.00
2018-05-13T08:13:58.160Z,18.10
2018-05-13T08:17:01.475Z,18.10
2018-05-13T08:20:04.782Z,18.10
2018-05-13T08:23:08.104Z,18.10
2018-05-13T08:26:12.236Z,17.90
2018-05-13T08:29:15.551Z,17.90
2018-05-13T08:32:18.862Z,17.90
2018-05-13T08:35:22.184Z,17.90
2018-05-13T08:38:25.501Z,17.90
2018-05-13T08:41:29.589Z,17.80
2018-05-13T08:44:32.904Z,17.70
2018-05-13T08:47:36.225Z,17.70
2018-05-13T08:50:39.552Z,17.50
2018-05-13T08:53:42.880Z,17.40
2018-05-13T08:56:46.188Z,17.30
2018-05-13T08:59:49.522Z,17.10
2018-05-13T09:02:52.848Z,17.00
2018-05-13T09:05:56.319Z,17.10
2018-05-13T09:08:59.667Z,17.10
2018-05-13T09:12:02.996Z,17.10
2018-05-13T09:15:07.074Z,17.10
2018-05-13T09:18:10.457Z,17.00
2018-05-13T09:21:13.775Z,16.90
2018-05-13T09:24:17.099Z,16.90
2018-05-13T09:27:21.173Z,16.70
2018-05-13T09:30:24.509Z,16.70
2018-05-13T09:33:28.577Z,16.70
2018-05-13T09:36:31.918Z,16.60
2018-05-13T09:39:35.990Z,16.70
2018-05-13T09:42:39.313Z,16.70
2018-05-13T09:45:42.909Z,16.80
2018-05-13T09:48:46.210Z,16.80
2018-05-13T09:51:49.513Z,16.90
2018-05-13T09:54:52.830Z,17.10
2018-05-13T09:57:56.147Z,17.20
2018-05-13T10:00:59.473Z,17.30
2018-05-13T10:04:02.886Z,17.50
2018-05-13T10:07:06.887Z,17.90
2018-05-13T10:10:10.214Z,17.80
2018-05-13T10:13:14.289Z,18.20
2018-05-13T10:16:17.604Z,18.20
2018-05-13T10:19:20.912Z,18.20
2018-05-13T10:22:24.225Z,18.20
2018-05-13T10:25:28.304Z,18.20
2018-05-13T10:28:31.633Z,18.20
2018-05-13T10:31:35.717Z,18.30
2018-05-13T10:34:39.049Z,18.30
2018-05-13T10:37:42.360Z,18.40
2018-05-13T10:40:45.684Z,18.50
2018-05-13T10:43:49.761Z,18.70
2018-05-13T10:46:53.077Z,18.70
2018-05-13T10:49:56.391Z,18.80
2018-05-13T10:52:59.721Z,18.90
2018-05-13T10:56:03.055Z,19.00
2018-05-13T10:59:06.374Z,19.10
2018-05-13T11:02:09.692Z,19.10
2018-05-13T11:05:13.006Z,19.20
2018-05-13T11:08:16.357Z,19.20
2018-05-13T11:11:19.668Z,19.40
2018-05-13T11:14:22.989Z,19.50
2018-05-13T11:17:26.324Z,19.70
2018-05-13T11:20:29.626Z,19.80
2018-05-13T11:23:32.936Z,19.80
2018-05-13T11:26:36.269Z,19.90
2018-05-13T11:29:39.572Z,20.00
2018-05-13T11:32:42.888Z,20.10
2018-05-13T11:35:46.201Z,20.00
2018-05-13T11:38:50.309Z,20.10
2018-05-13T11:41:54.384Z,20.10
2018-05-13T11:44:57.741Z,20.10
2018-05-13T11:48:01.045Z,20.10
2018-05-13T11:51:04.370Z,20.10
2018-05-13T11:54:07.679Z,20.20
2018-05-13T11:57:11.013Z,20.40
2018-05-13T12:00:15.085Z,20.70
2018-05-13T12:03:18.401Z,20.70
2018-05-13T12:06:21.708Z,20.80
2018-05-13T12:09:25.806Z,20.90
2018-05-13T12:12:29.120Z,20.90
2018-05-13T12:15:32.453Z,21.10
2018-05-13T12:18:36.529Z,21.30
2018-05-13T12:21:40.625Z,21.40
2018-05-13T12:24:43.932Z,21.40
2018-05-13T12:27:47.261Z,21.50
2018-05-13T12:30:50.577Z,21.60
2018-05-13T12:33:53.910Z,21.70
2018-05-13T12:36:57.221Z,21.70
2018-05-13T12:40:00.545Z,21.80
2018-05-13T12:43:03.862Z,21.80
2018-05-13T12:46:07.172Z,21.90
2018-05-13T12:49:10.515Z,21.90
2018-05-13T12:52:14.594Z,21.90
2018-05-13T12:55:17.918Z,21.90
2018-05-13T12:58:21.226Z,21.90
2018-05-13T13:01:25.323Z,22.00
2018-05-13T13:04:28.632Z,22.00
2018-05-13T13:07:32.732Z,22.20
2018-05-13T13:10:36.042Z,22.10
2018-05-13T13:13:39.361Z,22.20
2018-05-13T13:16:42.669Z,22.20
2018-05-13T13:19:45.996Z,22.30
2018-05-13T13:22:49.314Z,22.30
2018-05-13T13:25:52.660Z,22.40
2018-05-13T13:28:55.972Z,22.40
2018-05-13T13:31:59.304Z,22.40
2018-05-13T13:35:02.613Z,22.50
2018-05-13T13:38:05.945Z,22.50
2018-05-13T13:41:09.261Z,22.50
2018-05-13T13:44:12.582Z,22.60
2018-05-13T13:47:15.939Z,22.60
2018-05-13T13:50:19.229Z,22.70
2018-05-13T13:53:22.544Z,22.90
2018-05-13T13:56:25.869Z,23.00
2018-05-13T13:59:29.265Z,23.00
2018-05-13T14:02:33.297Z,23.00
2018-05-13T14:05:36.613Z,23.00
2018-05-13T14:08:40.046Z,23.10
2018-05-13T14:11:43.358Z,23.10
2018-05-13T14:14:46.793Z,23.20
2018-05-13T14:17:50.098Z,23.20
2018-05-13T14:20:54.188Z,23.40
2018-05-13T14:23:57.548Z,23.40
2018-05-13T14:27:00.948Z,23.50
2018-05-13T14:30:04.168Z,23.40
2018-05-13T14:33:07.486Z,23.40
2018-05-13T14:36:10.802Z,23.40
2018-05-13T14:39:14.117Z,23.50
2018-05-13T14:42:17.434Z,23.50
2018-05-13T14:45:20.774Z,23.50
2018-05-13T14:48:24.076Z,23.60
2018-05-13T14:51:27.401Z,23.60
2018-05-13T14:54:30.712Z,23.70
2018-05-13T14:57:34.045Z,23.80
2018-05-13T15:00:37.356Z,23.80
2018-05-13T15:03:40.773Z,23.80
2018-05-13T15:06:44.085Z,23.90
2018-05-13T15:09:47.405Z,24.00
2018-05-13T15:12:50.714Z,24.10
2018-05-13T15:15:54.052Z,24.20
2018-05-13T15:18:58.125Z,24.50
2018-05-13T15:22:01.470Z,24.50
2018-05-13T15:25:05.546Z,24.70
2018-05-13T15:28:08.903Z,24.70
2018-05-13T15:31:12.205Z,24.80
2018-05-13T15:34:15.533Z,24.80
2018-05-13T15:37:18.853Z,24.90
2018-05-13T15:40:22.168Z,24.90
2018-05-13T15:43:25.512Z,24.80
2018-05-13T15:46:28.832Z,24.70
2018-05-13T15:49:32.149Z,24.70
2018-05-13T15:52:35.474Z,24.80
2018-05-13T15:55:38.778Z,24.90
2018-05-13T15:58:42.117Z,24.90
2018-05-13T16:01:45.433Z,25.00
2018-05-13T16:04:48.766Z,24.80
2018-05-13T16:07:52.073Z,24.80
2018-05-13T16:10:55.397Z,24.60
2018-05-13T16:13:58.704Z,24.30
2018-05-13T16:17:02.029Z,24.00
2018-05-13T16:20:06.102Z,23.30
2018-05-13T16:23:09.427Z,23.30
2018-05-13T16:26:13.506Z,22.70
2018-05-13T16:29:16.818Z,22.60
2018-05-13T16:32:20.129Z,22.40
2018-05-13T16:35:23.438Z,22.20
2018-05-13T16:38:27.556Z,21.90
2018-05-13T16:41:31.621Z,21.80
2018-05-13T16:44:34.939Z,21.80
2018-05-13T16:47:38.249Z,21.70
2018-05-13T16:50:41.565Z,21.60
2018-05-13T16:53:45.633Z,21.50
2018-05-13T16:56:48.974Z,21.40
2018-05-13T16:59:53.036Z,21.20
2018-05-13T17:02:56.340Z,21.20
2018-05-13T17:05:59.641Z,21.10
2018-05-13T17:09:02.980Z,21.10
2018-05-13T17:12:07.044Z,20.90
2018-05-13T17:15:10.358Z,20.90
2018-05-13T17:18:13.665Z,20.90
2018-05-13T17:21:16.986Z,20.90
2018-05-13T17:24:20.290Z,20.90
2018-05-13T17:27:23.608Z,20.90
2018-05-13T17:30:26.917Z,20.90
2018-05-13T17:33:30.256Z,20.80
2018-05-13T17:36:33.564Z,20.80
2018-05-13T17:39:37.649Z,20.70
2018-05-13T17:42:40.949Z,20.60
2018-05-13T17:45:44.262Z,20.60
2018-05-13T17:48:48.332Z,20.50
2018-05-13T17:51:51.662Z,20.40
2018-05-13T17:54:54.961Z,20.40
2018-05-13T17:57:58.289Z,20.30
2018-05-13T18:01:01.593Z,20.20
2018-05-13T18:04:04.930Z,20.20
2018-05-13T18:07:08.233Z,20.10
2018-05-13T18:10:11.651Z,20.00
2018-05-13T18:13:15.713Z,19.90
2018-05-13T18:16:19.048Z,19.80
2018-05-13T18:19:22.344Z,19.80
2018-05-13T18:22:25.672Z,19.70
2018-05-13T18:25:28.973Z,19.60
2018-05-13T18:28:32.293Z,19.50
2018-05-13T18:31:35.609Z,19.40
2018-05-13T18:34:38.914Z,19.40
2018-05-13T18:37:42.229Z,19.30
2018-05-13T18:40:45.525Z,19.20
2018-05-13T18:43:48.940Z,19.20
2018-05-13T18:46:52.241Z,19.10
2018-05-13T18:49:56.354Z,19.00
2018-05-13T18:53:00.422Z,18.90
2018-05-13T18:56:03.775Z,18.80
2018-05-13T18:59:07.107Z,18.80
2018-05-13T19:02:10.443Z,18.70
2018-05-13T19:05:13.743Z,18.60
2018-05-13T19:08:18.530Z,18.50
2018-05-13T19:11:21.877Z,18.40
2018-05-13T19:14:25.941Z,18.30
2018-05-13T19:17:29.260Z,18.30
2018-05-13T19:20:32.568Z,18.20
2018-05-13T19:23:35.881Z,18.20
2018-05-13T19:26:39.945Z,18.10
2018-05-13T19:29:43.256Z,18.10
2018-05-13T19:32:46.557Z,18.00
2018-05-13T19:35:49.865Z,17.90
2018-05-13T19:38:53.168Z,17.90
2018-05-13T19:41:56.481Z,17.80
2018-05-13T19:45:00.554Z,17.70
2018-05-13T19:48:03.889Z,17.70
2018-05-13T19:51:07.186Z,17.70
2018-05-13T19:54:11.311Z,17.50
2018-05-13T19:57:14.599Z,17.50
2018-05-13T20:00:18.668Z,17.40
2018-05-13T20:03:22.108Z,17.40
2018-05-13T20:06:25.308Z,17.30
2018-05-13T20:09:28.680Z,17.20
2018-05-13T20:12:31.951Z,17.20
2018-05-13T20:15:35.302Z,17.20
2018-05-13T20:18:38.597Z,17.10
2018-05-13T20:21:42.671Z,17.00
2018-05-13T20:24:45.982Z,17.00
2018-05-13T20:27:49.286Z,17.00
2018-05-13T20:30:52.613Z,16.90
2018-05-13T20:33:55.914Z,16.80
2018-05-13T20:36:59.217Z,16.80
2018-05-13T20:40:02.521Z,16.70
2018-05-13T20:43:05.836Z,16.70
2018-05-13T20:46:09.144Z,16.60
2018-05-13T20:49:12.454Z,16.50
2018-05-13T20:52:15.761Z,16.40
2018-05-13T20:55:19.086Z,16.40
2018-05-13T20:58:22.393Z,16.30
2018-05-13T21:01:25.705Z,16.30
2018-05-13T21:04:29.013Z,16.20
2018-05-13T21:07:32.321Z,16.10
2018-05-13T21:10:35.625Z,16.10
2018-05-13T21:13:38.938Z,16.10
2018-05-13T21:16:42.238Z,16.00
2018-05-13T21:19:46.321Z,15.80
2018-05-13T21:22:49.629Z,15.70
2018-05-13T21:25:52.940Z,15.70
2018-05-13T21:28:56.262Z,15.70
2018-05-13T21:31:59.561Z,15.60
2018-05-13T21:35:02.890Z,15.60
2018-05-13T21:38:06.213Z,15.50
2018-05-13T21:41:09.514Z,15.50
2018-05-13T21:44:12.841Z,15.50
2018-05-13T21:47:16.145Z,15.40
2018-05-13T21:50:19.461Z,15.30
2018-05-13T21:53:22.761Z,15.30
2018-05-13T21:56:26.077Z,15.20
2018-05-13T21:59:29.381Z,15.20
2018-05-13T22:02:32.706Z,15.20
2018-05-13T22:05:36.772Z,15.10
2018-05-13T22:08:40.085Z,15.10
2018-05-13T22:11:43.399Z,15.10
2018-05-13T22:14:46.729Z,15.00
2018-05-13T22:17:50.035Z,15.00
2018-05-13T22:20:53.346Z,15.00
2018-05-13T22:23:56.641Z,14.90
2018-05-13T22:26:59.965Z,14.90
2018-05-13T22:30:03.264Z,14.90
2018-05-13T22:33:06.577Z,14.80
2018-05-13T22:36:09.894Z,14.80
2018-05-13T22:39:13.220Z,14.70
2018-05-13T22:42:16.516Z,14.70
2018-05-13T22:45:19.821Z,14.60
2018-05-13T22:48:23.157Z,14.60
2018-05-13T22:51:26.453Z,14.60
2018-05-13T22:54:29.786Z,14.50
2018-05-13T22:57:33.085Z,14.50
2018-05-13T23:00:36.404Z,14.50
2018-05-13T23:03:39.712Z,14.50
2018-05-13T23:06:43.028Z,14.50
2018-05-13T23:09:46.326Z,14.50
2018-05-13T23:12:49.642Z,14.50
2018-05-13T23:15:52.945Z,14.50
2018-05-13T23:18:57.018Z,14.50
2018-05-13T23:22:00.312Z,14.40
2018-05-13T23:25:03.648Z,14.50
2018-05-13T23:28:07.717Z,14.30
2018-05-13T23:31:11.029Z,14.30
2018-05-13T23:34:14.353Z,14.30
2018-05-13T23:37:18.420Z,14.30
2018-05-13T23:40:21.733Z,14.20
2018-05-13T23:43:25.137Z,14.30
2018-05-13T23:46:29.157Z,14.20
2018-05-13T23:49:32.461Z,14.10
2018-05-13T23:52:35.792Z,14.10
2018-05-13T23:55:39.094Z,14.10
2018-05-13T23:58:42.409Z,14.00
